Details From FEFF - Bangui M Poko
To FTTJ - Ndjamena Hassan Djamous
Flight Number -
Tags Generated
Created
Modified
Stats Distance 508 nm / 941 km
Max Altitude 0 ft / 0 m
Waypoints 3
Social Downloads 2
Likes 0
Share VATSIM

Download

Looking for another format? Having issues loading an existing format? Contact us
Advertisement - Login to hide

Notes

Generated

Route

FEFF LN FTTJ

ID Type Via Altitude Latitude Longitude Leg Dist Tot Dist Heading (true) Name
O FEFF APT - 0 ft / 0 m 4.40983˚ 18.51585˚ - 0 nm - -
LN NDB - 0 ft / 0 m 12.12643˚ 15.03228˚ 507 nm 507 nm 336° / 336° NDJAMENA NDB
O FTTJ APT - 0 ft / 0 m 12.12492˚ 15.02473˚ 0 nm 507 nm 258° / 258° -

Altitude Profile

Advertisement - Login to hide

Weather


0- 5 10 15 20 25 30 35+ Temperature / ° C

Clouds and Precipitation
Forecast for 2017-12-12 00:00 UTC. Updated 2 hours ago

Ground ~20,000 ft ~40,000 ft Winds

FEFF

Details ICAO FEFF (BGF)
Name BANGUI M POKO
Region Central African Republic
Timezone Africa/Bangui (UTC+1.0)
Stats Elevation 1,208 ft / 368 m (AMSL)
Location 4.398474° 18.518784°
Runways 1
Magnetic Variation 1.018° E

METAR

FEFF 120000Z 00000KT 6000 NSC 23/21 Q1011 NOSIG

Decode

TAF

TAF TAF FEFF 112300Z 1200/1306 00000KT CAVOK BECMG 1202/1204 2000 BR BKN003 BECMG 1207/1209 CAVOK BECMG 1215/1217 3000 FU

Decode

Departure Runways

ID Width Length Bearing (true) Bearing (mag) Surface Threshold Offset Overrun Length
17 148 ft / 45 m 8,559 ft / 2,609 m 165.55° 164.53° Asphalt 0 ft / 0 m 131 ft / 40 m
35 148 ft / 45 m 8,559 ft / 2,609 m 345.55° 344.53° Asphalt 0 ft / 0 m 131 ft / 40 m

FTTJ

Details ICAO FTTJ (NDJ)
Name Ndjamena Hassan Djamous
Region Chad
Timezone Africa/Ndjamena (UTC+1.0)
Stats Elevation 968 ft / 295 m (AMSL)
Location 12.133718° 15.033962°
Runways 1
Magnetic Variation 1.182° E

METAR

FTTJ 120000Z 33004KT CAVOK 21/07 Q1012 NOSIG

Decode

TAF

TAF TAF FTTJ 112300Z 1200/1306 36006KT 8000 NSC TEMPO 1208/1213 06010KT

Decode

Destination Runways

ID Width Length Bearing (true) Bearing (mag) Surface Threshold Offset Overrun Length
05 148 ft / 45 m 9,200 ft / 2,804 m 45.72° 44.54° Asphalt 0 ft / 0 m 130 ft / 40 m
23 148 ft / 45 m 9,200 ft / 2,804 m 225.72° 224.54° Asphalt 0 ft / 0 m 200 ft / 61 m

Approach Navaids

Runway Type Ident Frequency Range Bearing (true) Bearing (mag) Slope Elevation
05 Localiser IFL 109.90 MHz 18 nm / 33 km 45.80° 44.62° - 968 ft / 295 m (AMSL)
05 Glidescope IFL 109.90 MHz 10 nm / 19 km 45.72° 44.54° 3.00° 968 ft / 295 m (AMSL)

Popular Alternatives